sensor_id;sensor_type;location;lat;lon;timestamp;P1;durP1;ratioP1;P2;durP2;ratioP2
19231;SDS011;9750;48.730;10.294;2023-04-28T00:02:04;6.47;;;5.50;;
19231;SDS011;9750;48.730;10.294;2023-04-28T00:04:31;8.47;;;5.90;;
19231;SDS011;9750;48.730;10.294;2023-04-28T00:06:58;7.47;;;5.53;;
19231;SDS011;9750;48.730;10.294;2023-04-28T00:09:26;5.73;;;5.10;;
19231;SDS011;9750;48.730;10.294;2023-04-28T00:11:53;7.53;;;5.50;;
19231;SDS011;9750;48.730;10.294;2023-04-28T00:14:20;6.20;;;5.60;;
19231;SDS011;9750;48.730;10.294;2023-04-28T00:16:47;6.63;;;5.50;;
19231;SDS011;9750;48.730;10.294;2023-04-28T00:19:16;8.03;;;6.37;;
19231;SDS011;9750;48.730;10.294;2023-04-28T00:21:43;7.27;;;6.57;;
19231;SDS011;9750;48.730;10.294;2023-04-28T00:24:11;9.83;;;7.43;;
19231;SDS011;9750;48.730;10.294;2023-04-28T00:26:38;7.30;;;6.60;;
19231;SDS011;9750;48.730;10.294;2023-04-28T00:29:05;7.80;;;6.97;;
19231;SDS011;9750;48.730;10.294;2023-04-28T00:31:32;8.30;;;7.50;;
19231;SDS011;9750;48.730;10.294;2023-04-28T00:34:00;8.83;;;7.07;;
19231;SDS011;9750;48.730;10.294;2023-04-28T00:36:29;7.70;;;6.63;;
19231;SDS011;9750;48.730;10.294;2023-04-28T00:38:57;8.93;;;6.73;;
19231;SDS011;9750;48.730;10.294;2023-04-28T00:41:24;9.27;;;6.93;;
19231;SDS011;9750;48.730;10.294;2023-04-28T00:43:51;8.70;;;7.07;;
19231;SDS011;9750;48.730;10.294;2023-04-28T00:46:19;9.50;;;7.23;;
19231;SDS011;9750;48.730;10.294;2023-04-28T00:48:48;8.60;;;5.93;;
19231;SDS011;9750;48.730;10.294;2023-04-28T00:51:16;9.47;;;6.03;;
19231;SDS011;9750;48.730;10.294;2023-04-28T00:53:44;7.33;;;5.97;;
19231;SDS011;9750;48.730;10.294;2023-04-28T00:56:12;9.37;;;6.23;;
19231;SDS011;9750;48.730;10.294;2023-04-28T00:58:39;8.93;;;6.50;;
19231;SDS011;9750;48.730;10.294;2023-04-28T01:01:08;7.93;;;6.70;;
19231;SDS011;9750;48.730;10.294;2023-04-28T01:03:36;8.20;;;6.40;;
19231;SDS011;9750;48.730;10.294;2023-04-28T01:06:05;7.03;;;6.33;;
19231;SDS011;9750;48.730;10.294;2023-04-28T01:08:34;15.50;;;7.50;;
19231;SDS011;9750;48.730;10.294;2023-04-28T01:11:04;7.47;;;6.67;;
19231;SDS011;9750;48.730;10.294;2023-04-28T01:13:31;10.30;;;7.20;;
19231;SDS011;9750;48.730;10.294;2023-04-28T01:15:58;8.27;;;6.80;;
19231;SDS011;9750;48.730;10.294;2023-04-28T01:18:26;10.93;;;7.50;;
19231;SDS011;9750;48.730;10.294;2023-04-28T01:20:54;10.07;;;7.47;;
19231;SDS011;9750;48.730;10.294;2023-04-28T01:23:21;8.33;;;6.97;;
19231;SDS011;9750;48.730;10.294;2023-04-28T01:25:50;9.37;;;7.03;;
19231;SDS011;9750;48.730;10.294;2023-04-28T01:28:17;8.73;;;6.37;;
19231;SDS011;9750;48.730;10.294;2023-04-28T01:30:44;8.27;;;6.27;;
19231;SDS011;9750;48.730;10.294;2023-04-28T01:33:11;7.50;;;6.40;;
19231;SDS011;9750;48.730;10.294;2023-04-28T01:35:39;7.30;;;6.20;;
19231;SDS011;9750;48.730;10.294;2023-04-28T01:38:06;7.27;;;5.97;;
19231;SDS011;9750;48.730;10.294;2023-04-28T01:40:33;6.63;;;5.90;;
19231;SDS011;9750;48.730;10.294;2023-04-28T01:43:02;6.80;;;6.20;;
19231;SDS011;9750;48.730;10.294;2023-04-28T01:45:29;7.20;;;6.00;;
19231;SDS011;9750;48.730;10.294;2023-04-28T01:47:56;8.37;;;6.37;;
19231;SDS011;9750;48.730;10.294;2023-04-28T01:50:23;7.20;;;6.10;;
19231;SDS011;9750;48.730;10.294;2023-04-28T01:52:51;8.77;;;6.20;;
19231;SDS011;9750;48.730;10.294;2023-04-28T01:55:18;9.40;;;6.03;;
19231;SDS011;9750;48.730;10.294;2023-04-28T01:57:45;9.23;;;7.03;;
19231;SDS011;9750;48.730;10.294;2023-04-28T02:00:14;9.53;;;6.03;;
19231;SDS011;9750;48.730;10.294;2023-04-28T02:02:42;7.70;;;6.27;;
19231;SDS011;9750;48.730;10.294;2023-04-28T02:05:09;8.67;;;7.00;;
19231;SDS011;9750;48.730;10.294;2023-04-28T02:07:37;8.13;;;7.27;;
19231;SDS011;9750;48.730;10.294;2023-04-28T02:10:04;8.03;;;7.23;;
19231;SDS011;9750;48.730;10.294;2023-04-28T02:12:32;7.80;;;6.87;;
19231;SDS011;9750;48.730;10.294;2023-04-28T02:14:59;6.80;;;6.10;;
19231;SDS011;9750;48.730;10.294;2023-04-28T02:17:29;7.50;;;6.80;;
19231;SDS011;9750;48.730;10.294;2023-04-28T02:19:57;7.20;;;6.50;;
19231;SDS011;9750;48.730;10.294;2023-04-28T02:22:24;8.73;;;7.83;;
19231;SDS011;9750;48.730;10.294;2023-04-28T02:24:51;8.27;;;7.07;;
19231;SDS011;9750;48.730;10.294;2023-04-28T02:27:19;9.87;;;7.13;;
19231;SDS011;9750;48.730;10.294;2023-04-28T02:29:47;7.23;;;6.57;;
19231;SDS011;9750;48.730;10.294;2023-04-28T02:32:14;8.07;;;6.57;;
19231;SDS011;9750;48.730;10.294;2023-04-28T02:34:43;9.57;;;7.00;;
19231;SDS011;9750;48.730;10.294;2023-04-28T02:37:10;7.93;;;7.13;;
19231;SDS011;9750;48.730;10.294;2023-04-28T02:39:37;8.07;;;7.07;;
19231;SDS011;9750;48.730;10.294;2023-04-28T02:42:04;8.00;;;6.90;;
19231;SDS011;9750;48.730;10.294;2023-04-28T02:44:31;8.23;;;7.30;;
19231;SDS011;9750;48.730;10.294;2023-04-28T02:46:59;10.47;;;6.80;;
19231;SDS011;9750;48.730;10.294;2023-04-28T02:49:26;7.57;;;6.57;;
19231;SDS011;9750;48.730;10.294;2023-04-28T02:51:55;9.87;;;6.83;;
19231;SDS011;9750;48.730;10.294;2023-04-28T02:54:22;8.03;;;7.23;;
19231;SDS011;9750;48.730;10.294;2023-04-28T02:56:52;10.20;;;8.03;;
19231;SDS011;9750;48.730;10.294;2023-04-28T02:59:20;7.67;;;6.87;;
19231;SDS011;9750;48.730;10.294;2023-04-28T03:01:47;8.57;;;7.57;;
19231;SDS011;9750;48.730;10.294;2023-04-28T03:04:15;8.90;;;7.63;;
19231;SDS011;9750;48.730;10.294;2023-04-28T03:06:43;8.27;;;7.13;;
19231;SDS011;9750;48.730;10.294;2023-04-28T03:09:12;10.23;;;6.83;;
19231;SDS011;9750;48.730;10.294;2023-04-28T03:11:39;7.80;;;6.80;;
19231;SDS011;9750;48.730;10.294;2023-04-28T03:14:07;8.07;;;6.40;;
19231;SDS011;9750;48.730;10.294;2023-04-28T03:16:34;6.93;;;6.23;;
19231;SDS011;9750;48.730;10.294;2023-04-28T03:19:01;8.33;;;6.10;;
19231;SDS011;9750;48.730;10.294;2023-04-28T03:21:29;7.70;;;6.37;;
19231;SDS011;9750;48.730;10.294;2023-04-28T03:23:56;6.97;;;6.37;;
19231;SDS011;9750;48.730;10.294;2023-04-28T03:26:25;9.10;;;6.77;;
19231;SDS011;9750;48.730;10.294;2023-04-28T03:28:52;9.60;;;7.10;;
19231;SDS011;9750;48.730;10.294;2023-04-28T03:31:21;7.53;;;6.67;;
19231;SDS011;9750;48.730;10.294;2023-04-28T03:33:48;8.00;;;6.67;;
19231;SDS011;9750;48.730;10.294;2023-04-28T03:36:15;8.47;;;6.97;;
19231;SDS011;9750;48.730;10.294;2023-04-28T03:38:42;11.00;;;7.13;;
19231;SDS011;9750;48.730;10.294;2023-04-28T03:41:10;7.90;;;7.03;;
19231;SDS011;9750;48.730;10.294;2023-04-28T03:43:38;7.73;;;6.40;;
19231;SDS011;9750;48.730;10.294;2023-04-28T03:46:06;9.33;;;7.30;;
19231;SDS011;9750;48.730;10.294;2023-04-28T03:48:33;7.57;;;6.13;;
19231;SDS011;9750;48.730;10.294;2023-04-28T03:51:00;6.50;;;5.87;;
19231;SDS011;9750;48.730;10.294;2023-04-28T03:53:27;7.40;;;6.70;;
19231;SDS011;9750;48.730;10.294;2023-04-28T03:55:55;7.20;;;6.20;;
19231;SDS011;9750;48.730;10.294;2023-04-28T03:58:22;7.40;;;6.20;;
19231;SDS011;9750;48.730;10.294;2023-04-28T04:00:51;7.53;;;6.70;;
19231;SDS011;9750;48.730;10.294;2023-04-28T04:03:18;7.17;;;5.80;;
19231;SDS011;9750;48.730;10.294;2023-04-28T04:05:50;9.20;;;6.87;;
19231;SDS011;9750;48.730;10.294;2023-04-28T04:11:39;6.87;;;6.17;;
19231;SDS011;9750;48.730;10.294;2023-04-28T04:14:06;8.37;;;6.73;;
19231;SDS011;9750;48.730;10.294;2023-04-28T04:16:35;7.53;;;6.60;;
19231;SDS011;9750;48.730;10.294;2023-04-28T04:19:03;8.63;;;7.73;;
19231;SDS011;9750;48.730;10.294;2023-04-28T04:21:30;8.17;;;7.27;;
19231;SDS011;9750;48.730;10.294;2023-04-28T04:23:57;8.43;;;7.10;;
19231;SDS011;9750;48.730;10.294;2023-04-28T04:26:24;8.20;;;7.40;;
19231;SDS011;9750;48.730;10.294;2023-04-28T04:28:52;8.63;;;6.97;;
19231;SDS011;9750;48.730;10.294;2023-04-28T04:31:19;7.60;;;6.80;;
19231;SDS011;9750;48.730;10.294;2023-04-28T04:33:48;7.93;;;7.13;;
19231;SDS011;9750;48.730;10.294;2023-04-28T04:36:15;8.03;;;7.10;;
19231;SDS011;9750;48.730;10.294;2023-04-28T04:38:43;8.17;;;6.80;;
19231;SDS011;9750;48.730;10.294;2023-04-28T04:41:10;7.23;;;6.07;;
19231;SDS011;9750;48.730;10.294;2023-04-28T04:43:37;8.20;;;7.07;;
19231;SDS011;9750;48.730;10.294;2023-04-28T04:46:05;8.23;;;7.20;;
19231;SDS011;9750;48.730;10.294;2023-04-28T04:48:32;7.53;;;6.77;;
19231;SDS011;9750;48.730;10.294;2023-04-28T04:51:01;9.80;;;7.10;;
19231;SDS011;9750;48.730;10.294;2023-04-28T04:53:28;8.57;;;7.10;;
19231;SDS011;9750;48.730;10.294;2023-04-28T04:55:55;7.57;;;6.87;;
19231;SDS011;9750;48.730;10.294;2023-04-28T05:01:45;8.10;;;7.30;;
19231;SDS011;9750;48.730;10.294;2023-04-28T05:04:12;8.40;;;7.33;;
19231;SDS011;9750;48.730;10.294;2023-04-28T05:06:41;8.23;;;7.20;;
19231;SDS011;9750;48.730;10.294;2023-04-28T05:09:08;9.10;;;7.43;;
19231;SDS011;9750;48.730;10.294;2023-04-28T05:11:35;8.30;;;7.40;;
19231;SDS011;9750;48.730;10.294;2023-04-28T05:14:02;8.97;;;7.40;;
19231;SDS011;9750;48.730;10.294;2023-04-28T05:16:30;8.00;;;7.20;;
19231;SDS011;9750;48.730;10.294;2023-04-28T05:18:57;9.27;;;7.33;;
19231;SDS011;9750;48.730;10.294;2023-04-28T05:21:25;9.83;;;7.60;;
19231;SDS011;9750;48.730;10.294;2023-04-28T05:23:54;8.83;;;7.53;;
19231;SDS011;9750;48.730;10.294;2023-04-28T05:26:21;9.50;;;8.37;;
19231;SDS011;9750;48.730;10.294;2023-04-28T05:28:48;8.90;;;8.00;;
19231;SDS011;9750;48.730;10.294;2023-04-28T05:31:16;9.77;;;8.00;;
19231;SDS011;9750;48.730;10.294;2023-04-28T05:33:43;11.87;;;8.00;;
19231;SDS011;9750;48.730;10.294;2023-04-28T05:36:11;8.30;;;7.40;;
19231;SDS011;9750;48.730;10.294;2023-04-28T05:38:41;9.00;;;7.90;;
19231;SDS011;9750;48.730;10.294;2023-04-28T05:41:10;11.03;;;7.37;;
19231;SDS011;9750;48.730;10.294;2023-04-28T05:43:37;9.13;;;7.57;;
19231;SDS011;9750;48.730;10.294;2023-04-28T05:46:04;8.40;;;7.60;;
19231;SDS011;9750;48.730;10.294;2023-04-28T05:48:31;7.83;;;7.13;;
19231;SDS011;9750;48.730;10.294;2023-04-28T05:50:59;12.67;;;8.90;;
19231;SDS011;9750;48.730;10.294;2023-04-28T05:53:26;14.50;;;11.33;;
19231;SDS011;9750;48.730;10.294;2023-04-28T05:55:53;11.37;;;8.93;;
19231;SDS011;9750;48.730;10.294;2023-04-28T05:58:22;9.03;;;8.07;;
19231;SDS011;9750;48.730;10.294;2023-04-28T06:00:49;9.07;;;8.17;;
19231;SDS011;9750;48.730;10.294;2023-04-28T06:03:17;9.43;;;7.60;;
19231;SDS011;9750;48.730;10.294;2023-04-28T06:05:45;9.07;;;8.17;;
19231;SDS011;9750;48.730;10.294;2023-04-28T06:08:12;10.03;;;9.03;;
19231;SDS011;9750;48.730;10.294;2023-04-28T06:10:39;9.80;;;8.80;;
19231;SDS011;9750;48.730;10.294;2023-04-28T06:13:07;10.90;;;8.63;;
19231;SDS011;9750;48.730;10.294;2023-04-28T06:15:36;12.03;;;10.83;;
19231;SDS011;9750;48.730;10.294;2023-04-28T06:18:03;11.43;;;9.23;;
19231;SDS011;9750;48.730;10.294;2023-04-28T06:20:31;8.93;;;8.03;;
19231;SDS011;9750;48.730;10.294;2023-04-28T06:22:59;11.07;;;9.53;;
19231;SDS011;9750;48.730;10.294;2023-04-28T06:25:27;11.53;;;9.47;;
19231;SDS011;9750;48.730;10.294;2023-04-28T06:27:55;10.30;;;9.27;;
19231;SDS011;9750;48.730;10.294;2023-04-28T06:30:23;11.93;;;9.37;;
19231;SDS011;9750;48.730;10.294;2023-04-28T06:32:51;10.43;;;9.10;;
19231;SDS011;9750;48.730;10.294;2023-04-28T06:35:20;10.33;;;9.20;;
19231;SDS011;9750;48.730;10.294;2023-04-28T06:37:48;10.27;;;9.33;;
19231;SDS011;9750;48.730;10.294;2023-04-28T06:40:15;12.20;;;10.00;;
19231;SDS011;9750;48.730;10.294;2023-04-28T06:42:42;10.07;;;9.07;;
19231;SDS011;9750;48.730;10.294;2023-04-28T06:45:10;11.73;;;10.23;;
19231;SDS011;9750;48.730;10.294;2023-04-28T06:47:37;12.30;;;10.93;;
19231;SDS011;9750;48.730;10.294;2023-04-28T06:50:07;12.63;;;10.40;;
19231;SDS011;9750;48.730;10.294;2023-04-28T06:52:35;13.00;;;11.70;;
19231;SDS011;9750;48.730;10.294;2023-04-28T06:55:04;11.57;;;10.37;;
19231;SDS011;9750;48.730;10.294;2023-04-28T06:57:33;13.03;;;11.33;;
19231;SDS011;9750;48.730;10.294;2023-04-28T07:00:02;10.73;;;9.63;;
19231;SDS011;9750;48.730;10.294;2023-04-28T07:02:29;11.83;;;10.67;;
19231;SDS011;9750;48.730;10.294;2023-04-28T07:04:57;12.53;;;11.30;;
19231;SDS011;9750;48.730;10.294;2023-04-28T07:07:25;13.20;;;11.90;;
19231;SDS011;9750;48.730;10.294;2023-04-28T07:09:52;13.77;;;12.37;;
19231;SDS011;9750;48.730;10.294;2023-04-28T07:12:20;13.33;;;11.97;;
19231;SDS011;9750;48.730;10.294;2023-04-28T07:14:48;13.60;;;12.30;;
19231;SDS011;9750;48.730;10.294;2023-04-28T07:17:15;13.33;;;11.93;;
19231;SDS011;9750;48.730;10.294;2023-04-28T07:19:43;13.93;;;12.53;;
19231;SDS011;9750;48.730;10.294;2023-04-28T07:22:10;14.40;;;13.00;;
19231;SDS011;9750;48.730;10.294;2023-04-28T07:24:39;13.93;;;12.53;;
19231;SDS011;9750;48.730;10.294;2023-04-28T07:27:06;13.40;;;12.10;;
19231;SDS011;9750;48.730;10.294;2023-04-28T07:29:33;12.10;;;11.00;;
19231;SDS011;9750;48.730;10.294;2023-04-28T07:32:00;12.13;;;11.00;;
19231;SDS011;9750;48.730;10.294;2023-04-28T07:34:29;10.30;;;9.30;;
19231;SDS011;9750;48.730;10.294;2023-04-28T07:36:56;11.30;;;10.20;;
19231;SDS011;9750;48.730;10.294;2023-04-28T07:39:24;9.67;;;8.87;;
19231;SDS011;9750;48.730;10.294;2023-04-28T07:41:57;8.47;;;7.67;;
19231;SDS011;9750;48.730;10.294;2023-04-28T07:44:24;8.93;;;8.10;;
19231;SDS011;9750;48.730;10.294;2023-04-28T07:46:52;8.50;;;7.73;;
19231;SDS011;9750;48.730;10.294;2023-04-28T07:49:19;9.33;;;7.60;;
19231;SDS011;9750;48.730;10.294;2023-04-28T07:51:46;8.00;;;7.30;;
19231;SDS011;9750;48.730;10.294;2023-04-28T07:54:13;8.20;;;7.40;;
19231;SDS011;9750;48.730;10.294;2023-04-28T07:56:41;7.73;;;7.00;;
19231;SDS011;9750;48.730;10.294;2023-04-28T07:59:09;7.40;;;6.70;;
19231;SDS011;9750;48.730;10.294;2023-04-28T08:01:37;7.87;;;7.17;;
19231;SDS011;9750;48.730;10.294;2023-04-28T08:04:04;6.90;;;6.20;;
19231;SDS011;9750;48.730;10.294;2023-04-28T08:06:31;7.57;;;6.77;;
19231;SDS011;9750;48.730;10.294;2023-04-28T08:09:00;7.20;;;6.60;;
19231;SDS011;9750;48.730;10.294;2023-04-28T08:11:28;6.97;;;6.30;;
19231;SDS011;9750;48.730;10.294;2023-04-28T08:13:55;7.03;;;6.40;;
19231;SDS011;9750;48.730;10.294;2023-04-28T08:16:27;5.93;;;5.43;;
19231;SDS011;9750;48.730;10.294;2023-04-28T08:18:55;6.40;;;5.83;;
19231;SDS011;9750;48.730;10.294;2023-04-28T08:21:23;4.93;;;4.53;;
19231;SDS011;9750;48.730;10.294;2023-04-28T08:23:51;5.60;;;5.10;;
19231;SDS011;9750;48.730;10.294;2023-04-28T08:26:18;6.23;;;5.57;;
19231;SDS011;9750;48.730;10.294;2023-04-28T08:28:45;5.77;;;5.27;;
19231;SDS011;9750;48.730;10.294;2023-04-28T08:31:13;5.07;;;4.60;;
19231;SDS011;9750;48.730;10.294;2023-04-28T08:33:44;4.83;;;4.43;;
19231;SDS011;9750;48.730;10.294;2023-04-28T08:36:14;4.73;;;4.33;;
19231;SDS011;9750;48.730;10.294;2023-04-28T08:38:42;5.00;;;4.60;;
19231;SDS011;9750;48.730;10.294;2023-04-28T08:41:09;4.60;;;4.27;;
19231;SDS011;9750;48.730;10.294;2023-04-28T08:43:40;5.37;;;4.87;;
19231;SDS011;9750;48.730;10.294;2023-04-28T08:46:09;7.47;;;6.73;;
19231;SDS011;9750;48.730;10.294;2023-04-28T08:48:38;5.47;;;5.03;;
19231;SDS011;9750;48.730;10.294;2023-04-28T08:51:09;4.13;;;3.83;;
19231;SDS011;9750;48.730;10.294;2023-04-28T08:53:40;5.20;;;4.70;;
19231;SDS011;9750;48.730;10.294;2023-04-28T08:56:10;4.30;;;4.00;;
19231;SDS011;9750;48.730;10.294;2023-04-28T08:58:41;4.93;;;4.43;;
19231;SDS011;9750;48.730;10.294;2023-04-28T09:01:08;6.13;;;4.60;;
19231;SDS011;9750;48.730;10.294;2023-04-28T09:03:35;4.60;;;4.10;;
19231;SDS011;9750;48.730;10.294;2023-04-28T09:06:03;4.37;;;3.97;;
19231;SDS011;9750;48.730;10.294;2023-04-28T09:08:42;4.97;;;4.57;;
19231;SDS011;9750;48.730;10.294;2023-04-28T09:11:10;4.87;;;4.43;;
19231;SDS011;9750;48.730;10.294;2023-04-28T09:13:38;4.33;;;3.93;;
19231;SDS011;9750;48.730;10.294;2023-04-28T09:16:06;4.60;;;4.20;;
19231;SDS011;9750;48.730;10.294;2023-04-28T09:18:33;5.10;;;4.47;;
19231;SDS011;9750;48.730;10.294;2023-04-28T09:21:01;5.03;;;4.63;;
19231;SDS011;9750;48.730;10.294;2023-04-28T09:23:29;5.37;;;4.27;;
19231;SDS011;9750;48.730;10.294;2023-04-28T09:25:59;7.63;;;6.93;;
19231;SDS011;9750;48.730;10.294;2023-04-28T09:28:28;5.93;;;5.43;;
19231;SDS011;9750;48.730;10.294;2023-04-28T09:30:55;6.90;;;6.20;;
19231;SDS011;9750;48.730;10.294;2023-04-28T09:33:23;7.07;;;6.43;;
19231;SDS011;9750;48.730;10.294;2023-04-28T09:35:50;6.20;;;5.70;;
19231;SDS011;9750;48.730;10.294;2023-04-28T09:38:18;5.73;;;5.33;;
19231;SDS011;9750;48.730;10.294;2023-04-28T09:40:54;7.20;;;6.70;;
19231;SDS011;9750;48.730;10.294;2023-04-28T09:43:25;4.80;;;4.40;;
19231;SDS011;9750;48.730;10.294;2023-04-28T09:45:53;4.67;;;4.27;;
19231;SDS011;9750;48.730;10.294;2023-04-28T09:48:31;5.40;;;5.00;;
19231;SDS011;9750;48.730;10.294;2023-04-28T09:51:00;3.80;;;3.50;;
19231;SDS011;9750;48.730;10.294;2023-04-28T09:53:28;5.20;;;4.80;;
19231;SDS011;9750;48.730;10.294;2023-04-28T09:55:57;4.10;;;3.80;;
19231;SDS011;9750;48.730;10.294;2023-04-28T09:58:27;4.33;;;3.93;;
19231;SDS011;9750;48.730;10.294;2023-04-28T10:00:56;3.90;;;3.60;;
19231;SDS011;9750;48.730;10.294;2023-04-28T10:03:25;4.00;;;3.70;;
19231;SDS011;9750;48.730;10.294;2023-04-28T10:05:53;3.80;;;3.50;;
19231;SDS011;9750;48.730;10.294;2023-04-28T10:08:25;3.40;;;3.10;;
19231;SDS011;9750;48.730;10.294;2023-04-28T10:10:56;4.00;;;3.70;;
19231;SDS011;9750;48.730;10.294;2023-04-28T10:13:24;4.33;;;4.03;;
19231;SDS011;9750;48.730;10.294;2023-04-28T10:15:52;3.43;;;3.17;;
19231;SDS011;9750;48.730;10.294;2023-04-28T10:18:22;3.60;;;2.90;;
19231;SDS011;9750;48.730;10.294;2023-04-28T10:20:52;4.00;;;3.70;;
19231;SDS011;9750;48.730;10.294;2023-04-28T10:26:21;4.30;;;3.90;;
19231;SDS011;9750;48.730;10.294;2023-04-28T10:28:58;2.80;;;2.60;;
19231;SDS011;9750;48.730;10.294;2023-04-28T10:31:36;2.67;;;2.47;;
19231;SDS011;9750;48.730;10.294;2023-04-28T10:47:11;2.80;;;2.60;;
19231;SDS011;9750;48.730;10.294;2023-04-28T10:52:47;2.40;;;2.20;;
19231;SDS011;9750;48.730;10.294;2023-04-28T10:55:28;2.17;;;2.00;;
19231;SDS011;9750;48.730;10.294;2023-04-28T11:01:04;2.53;;;2.10;;
19231;SDS011;9750;48.730;10.294;2023-04-28T11:03:52;2.00;;;1.80;;
19231;SDS011;9750;48.730;10.294;2023-04-28T11:06:25;1.70;;;1.60;;
19231;SDS011;9750;48.730;10.294;2023-04-28T11:08:53;2.10;;;1.90;;
19231;SDS011;9750;48.730;10.294;2023-04-28T11:11:22;1.80;;;1.70;;
19231;SDS011;9750;48.730;10.294;2023-04-28T11:13:51;2.67;;;1.90;;
19231;SDS011;9750;48.730;10.294;2023-04-28T11:16:20;1.60;;;1.50;;
19231;SDS011;9750;48.730;10.294;2023-04-28T11:18:57;1.50;;;1.40;;
19231;SDS011;9750;48.730;10.294;2023-04-28T11:21:29;2.63;;;2.20;;
19231;SDS011;9750;48.730;10.294;2023-04-28T11:23:58;1.60;;;1.50;;
19231;SDS011;9750;48.730;10.294;2023-04-28T11:26:27;1.67;;;1.33;;
19231;SDS011;9750;48.730;10.294;2023-04-28T11:28:55;1.57;;;1.47;;
19231;SDS011;9750;48.730;10.294;2023-04-28T11:31:24;1.50;;;1.40;;
19231;SDS011;9750;48.730;10.294;2023-04-28T11:33:53;1.10;;;1.10;;
19231;SDS011;9750;48.730;10.294;2023-04-28T11:36:37;1.37;;;1.20;;
19231;SDS011;9750;48.730;10.294;2023-04-28T11:39:33;1.80;;;1.70;;
19231;SDS011;9750;48.730;10.294;2023-04-28T11:42:09;1.77;;;1.67;;
19231;SDS011;9750;48.730;10.294;2023-04-28T11:44:36;2.30;;;1.40;;
19231;SDS011;9750;48.730;10.294;2023-04-28T11:47:04;1.50;;;1.40;;
19231;SDS011;9750;48.730;10.294;2023-04-28T11:49:42;1.77;;;1.57;;
19231;SDS011;9750;48.730;10.294;2023-04-28T11:52:10;1.60;;;1.50;;
19231;SDS011;9750;48.730;10.294;2023-04-28T11:54:39;1.70;;;1.60;;
19231;SDS011;9750;48.730;10.294;2023-04-28T11:57:15;1.70;;;1.60;;
19231;SDS011;9750;48.730;10.294;2023-04-28T11:59:43;2.30;;;2.10;;
19231;SDS011;9750;48.730;10.294;2023-04-28T12:02:11;2.13;;;1.93;;
19231;SDS011;9750;48.730;10.294;2023-04-28T12:04:40;2.30;;;1.70;;
19231;SDS011;9750;48.730;10.294;2023-04-28T12:10:31;2.37;;;2.03;;
19231;SDS011;9750;48.730;10.294;2023-04-28T12:12:58;2.10;;;2.00;;
19231;SDS011;9750;48.730;10.294;2023-04-28T12:15:41;2.30;;;2.00;;
19231;SDS011;9750;48.730;10.294;2023-04-28T12:18:08;1.93;;;1.83;;
19231;SDS011;9750;48.730;10.294;2023-04-28T12:20:38;2.17;;;1.90;;
19231;SDS011;9750;48.730;10.294;2023-04-28T12:23:06;2.30;;;1.67;;
19231;SDS011;9750;48.730;10.294;2023-04-28T12:25:41;1.80;;;1.70;;
19231;SDS011;9750;48.730;10.294;2023-04-28T12:28:12;2.57;;;1.50;;
19231;SDS011;9750;48.730;10.294;2023-04-28T12:30:39;2.30;;;1.77;;
19231;SDS011;9750;48.730;10.294;2023-04-28T12:33:20;2.23;;;1.93;;
19231;SDS011;9750;48.730;10.294;2023-04-28T12:35:50;2.47;;;1.80;;
19231;SDS011;9750;48.730;10.294;2023-04-28T12:41:17;2.30;;;2.00;;
19231;SDS011;9750;48.730;10.294;2023-04-28T12:43:44;3.63;;;1.90;;
19231;SDS011;9750;48.730;10.294;2023-04-28T12:46:11;2.70;;;1.90;;
19231;SDS011;9750;48.730;10.294;2023-04-28T12:48:39;1.90;;;1.70;;
19231;SDS011;9750;48.730;10.294;2023-04-28T12:51:08;2.57;;;1.60;;
19231;SDS011;9750;48.730;10.294;2023-04-28T12:53:35;2.20;;;2.00;;
19231;SDS011;9750;48.730;10.294;2023-04-28T12:56:05;3.27;;;1.80;;
19231;SDS011;9750;48.730;10.294;2023-04-28T12:58:32;2.00;;;1.90;;
19231;SDS011;9750;48.730;10.294;2023-04-28T13:01:03;1.97;;;1.77;;
19231;SDS011;9750;48.730;10.294;2023-04-28T13:04:42;2.07;;;1.50;;
19231;SDS011;9750;48.730;10.294;2023-04-28T13:27:37;2.03;;;1.50;;
19231;SDS011;9750;48.730;10.294;2023-04-28T13:30:04;1.60;;;1.50;;
19231;SDS011;9750;48.730;10.294;2023-04-28T13:32:33;1.53;;;1.43;;
19231;SDS011;9750;48.730;10.294;2023-04-28T13:35:00;3.43;;;1.60;;
19231;SDS011;9750;48.730;10.294;2023-04-28T13:37:27;2.43;;;1.80;;
19231;SDS011;9750;48.730;10.294;2023-04-28T13:39:56;2.70;;;2.23;;
19231;SDS011;9750;48.730;10.294;2023-04-28T13:42:23;2.47;;;2.10;;
19231;SDS011;9750;48.730;10.294;2023-04-28T13:44:52;2.60;;;2.37;;
19231;SDS011;9750;48.730;10.294;2023-04-28T13:47:19;2.63;;;1.57;;
19231;SDS011;9750;48.730;10.294;2023-04-28T13:49:46;2.30;;;1.83;;
19231;SDS011;9750;48.730;10.294;2023-04-28T13:52:14;1.40;;;1.30;;
19231;SDS011;9750;48.730;10.294;2023-04-28T13:54:41;1.30;;;1.20;;
19231;SDS011;9750;48.730;10.294;2023-04-28T13:57:08;1.37;;;1.27;;
19231;SDS011;9750;48.730;10.294;2023-04-28T13:59:37;2.40;;;1.73;;
19231;SDS011;9750;48.730;10.294;2023-04-28T14:02:07;1.93;;;1.57;;
19231;SDS011;9750;48.730;10.294;2023-04-28T14:04:35;3.27;;;1.40;;
19231;SDS011;9750;48.730;10.294;2023-04-28T14:07:03;1.73;;;1.40;;
19231;SDS011;9750;48.730;10.294;2023-04-28T14:09:30;1.67;;;1.30;;
19231;SDS011;9750;48.730;10.294;2023-04-28T14:11:57;1.40;;;1.30;;
19231;SDS011;9750;48.730;10.294;2023-04-28T14:14:25;2.07;;;1.70;;
19231;SDS011;9750;48.730;10.294;2023-04-28T14:16:52;2.83;;;1.33;;
19231;SDS011;9750;48.730;10.294;2023-04-28T14:19:20;2.93;;;1.90;;
19231;SDS011;9750;48.730;10.294;2023-04-28T14:21:48;1.20;;;1.10;;
19231;SDS011;9750;48.730;10.294;2023-04-28T14:24:16;1.30;;;1.20;;
19231;SDS011;9750;48.730;10.294;2023-04-28T14:26:44;1.70;;;1.60;;
19231;SDS011;9750;48.730;10.294;2023-04-28T14:29:11;1.40;;;1.20;;
19231;SDS011;9750;48.730;10.294;2023-04-28T14:31:39;1.43;;;1.20;;
19231;SDS011;9750;48.730;10.294;2023-04-28T14:34:06;2.63;;;1.20;;
19231;SDS011;9750;48.730;10.294;2023-04-28T14:36:35;1.67;;;1.30;;
19231;SDS011;9750;48.730;10.294;2023-04-28T14:39:03;1.40;;;1.23;;
19231;SDS011;9750;48.730;10.294;2023-04-28T14:41:30;1.63;;;1.47;;
19231;SDS011;9750;48.730;10.294;2023-04-28T14:43:57;2.50;;;1.40;;
19231;SDS011;9750;48.730;10.294;2023-04-28T14:46:25;1.53;;;1.20;;
19231;SDS011;9750;48.730;10.294;2023-04-28T14:48:52;1.23;;;1.10;;
19231;SDS011;9750;48.730;10.294;2023-04-28T14:51:19;1.27;;;1.13;;
19231;SDS011;9750;48.730;10.294;2023-04-28T14:53:48;1.60;;;1.23;;
19231;SDS011;9750;48.730;10.294;2023-04-28T14:56:15;1.73;;;1.23;;
19231;SDS011;9750;48.730;10.294;2023-04-28T14:58:44;1.60;;;1.20;;
19231;SDS011;9750;48.730;10.294;2023-04-28T15:01:11;2.73;;;1.70;;
19231;SDS011;9750;48.730;10.294;2023-04-28T15:03:39;1.83;;;1.27;;
19231;SDS011;9750;48.730;10.294;2023-04-28T15:06:06;1.93;;;1.50;;
19231;SDS011;9750;48.730;10.294;2023-04-28T15:08:34;1.50;;;1.40;;
19231;SDS011;9750;48.730;10.294;2023-04-28T15:11:03;2.97;;;1.10;;
19231;SDS011;9750;48.730;10.294;2023-04-28T15:13:30;2.13;;;1.20;;
19231;SDS011;9750;48.730;10.294;2023-04-28T15:15:58;2.63;;;1.50;;
19231;SDS011;9750;48.730;10.294;2023-04-28T15:18:25;2.17;;;1.33;;
19231;SDS011;9750;48.730;10.294;2023-04-28T15:20:52;4.67;;;1.50;;
19231;SDS011;9750;48.730;10.294;2023-04-28T15:23:20;1.77;;;1.30;;
19231;SDS011;9750;48.730;10.294;2023-04-28T15:25:47;1.97;;;1.23;;
19231;SDS011;9750;48.730;10.294;2023-04-28T15:31:27;1.70;;;1.37;;
19231;SDS011;9750;48.730;10.294;2023-04-28T15:33:54;1.37;;;1.27;;
19231;SDS011;9750;48.730;10.294;2023-04-28T15:36:21;1.80;;;1.10;;
19231;SDS011;9750;48.730;10.294;2023-04-28T15:38:49;1.70;;;1.60;;
19231;SDS011;9750;48.730;10.294;2023-04-28T15:41:17;1.33;;;1.20;;
19231;SDS011;9750;48.730;10.294;2023-04-28T15:43:44;1.40;;;1.30;;
19231;SDS011;9750;48.730;10.294;2023-04-28T15:46:14;2.90;;;1.90;;
19231;SDS011;9750;48.730;10.294;2023-04-28T15:48:43;2.30;;;1.50;;
19231;SDS011;9750;48.730;10.294;2023-04-28T15:51:10;2.90;;;2.10;;
19231;SDS011;9750;48.730;10.294;2023-04-28T15:53:37;2.20;;;2.00;;